Aviation Digital Data Service (ADDS)

Output produced by METARs form (0117 UTC 17 July 2019)
found at http://www.aviationweather.gov/metar/data/
 
METAR text: VTCT 170100Z VRB02KT 9999 FEW025 28/25 Q1006 NOSIG
Conditions at: VTCT (CHIANG RAI INTL , TH) observed 0100 UTC 17 July 2019
Temperature: 28.0°C (82°F)
Dewpoint: 25.0°C (77°F) [RH = 84%]
Pressure (altimeter): 29.70 inches Hg (1006.0 mb)
Winds: variable direction winds at 2 MPH (2 knots; 1.0 m/s)
Visibility: 6 or more miles (10+ km)
Ceiling: at least 12,000 feet AGL
Clouds: few clouds at 2500 feet AGL
Weather: no significant weather observed at this time

METAR text: VTCT 170000Z 00000KT 9999 FEW030 BKN054 25/25 Q1005 NOSIG
Conditions at: VTCT (CHIANG RAI INTL , TH) observed 0000 UTC 17 July 2019
Temperature: 25.0°C (77°F)
Dewpoint: 25.0°C (77°F) [RH = 100%]
Pressure (altimeter): 29.68 inches Hg (1005.0 mb)
Winds: calm
Visibility: 6 or more miles (10+ km)
Ceiling: 5400 feet AGL
Clouds: few clouds at 3000 feet AGL
broken clouds at 5400 feet AGL
Weather: no significant weather observed at this time

METAR text: VTCT 162300Z 00000KT 9999 FEW028 SCT055 24/24 Q1005 NOSIG
Conditions at: VTCT (CHIANG RAI INTL , TH) observed 2300 UTC 16 July 2019
Temperature: 24.0°C (75°F)
Dewpoint: 24.0°C (75°F) [RH = 100%]
Pressure (altimeter): 29.68 inches Hg (1005.0 mb)
Winds: calm
Visibility: 6 or more miles (10+ km)
Ceiling: at least 12,000 feet AGL
Clouds: few clouds at 2800 feet AGL
scattered clouds at 5500 feet AGL
Weather: no significant weather observed at this time

METAR text: VTCT 162200Z 33004KT CAVOK 25/24 Q1005 NOSIG
Conditions at: VTCT (CHIANG RAI INTL , TH) observed 2200 UTC 16 July 2019
Temperature: 25.0°C (77°F)
Dewpoint: 24.0°C (75°F) [RH = 94%]
Pressure (altimeter): 29.68 inches Hg (1005.0 mb)
Winds: from the NNW (330 degrees) at 5 MPH (4 knots; 2.1 m/s)
Visibility: 6 or more miles (10+ km)
Ceiling: ceiling and visibility are OK
Clouds: unknown
Weather: no significant weather observed at this time

METAR text: VTCT 162100Z 00000KT CAVOK 25/24 Q1005 NOSIG
Conditions at: VTCT (CHIANG RAI INTL , TH) observed 2100 UTC 16 July 2019
Temperature: 25.0°C (77°F)
Dewpoint: 24.0°C (75°F) [RH = 94%]
Pressure (altimeter): 29.68 inches Hg (1005.0 mb)
Winds: calm
Visibility: 6 or more miles (10+ km)
Ceiling: ceiling and visibility are OK
Clouds: unknown
Weather: no significant weather observed at this time

METAR text: VTCT 162000Z VRB02KT 9999 FEW030 SCT060 26/24 Q1005 NOSIG
Conditions at: VTCT (CHIANG RAI INTL , TH) observed 2000 UTC 16 July 2019
Temperature: 26.0°C (79°F)
Dewpoint: 24.0°C (75°F) [RH = 89%]
Pressure (altimeter): 29.68 inches Hg (1005.0 mb)
Winds: variable direction winds at 2 MPH (2 knots; 1.0 m/s)
Visibility: 6 or more miles (10+ km)
Ceiling: at least 12,000 feet AGL
Clouds: few clouds at 3000 feet AGL
scattered clouds at 6000 feet AGL
Weather: no significant weather observed at this time

METAR text: VTCT 161900Z 36002KT CAVOK 25/24 Q1005 NOSIG
Conditions at: VTCT (CHIANG RAI INTL , TH) observed 1900 UTC 16 July 2019
Temperature: 25.0°C (77°F)
Dewpoint: 24.0°C (75°F) [RH = 94%]
Pressure (altimeter): 29.68 inches Hg (1005.0 mb)
Winds: from the N (360 degrees) at 2 MPH (2 knots; 1.0 m/s)
Visibility: 6 or more miles (10+ km)
Ceiling: ceiling and visibility are OK
Clouds: unknown
Weather: no significant weather observed at this time

METAR text: VTCT 161800Z 00000KT CAVOK 26/25 Q1005 NOSIG
Conditions at: VTCT (CHIANG RAI INTL , TH) observed 1800 UTC 16 July 2019
Temperature: 26.0°C (79°F)
Dewpoint: 25.0°C (77°F) [RH = 94%]
Pressure (altimeter): 29.68 inches Hg (1005.0 mb)
Winds: calm
Visibility: 6 or more miles (10+ km)
Ceiling: ceiling and visibility are OK
Clouds: unknown
Weather: no significant weather observed at this time

METAR text: VTCT 161700Z 24002KT CAVOK 26/25 Q1005 NOSIG
Conditions at: VTCT (CHIANG RAI INTL , TH) observed 1700 UTC 16 July 2019
Temperature: 26.0°C (79°F)
Dewpoint: 25.0°C (77°F) [RH = 94%]
Pressure (altimeter): 29.68 inches Hg (1005.0 mb)
Winds: from the WSW (240 degrees) at 2 MPH (2 knots; 1.0 m/s)
Visibility: 6 or more miles (10+ km)
Ceiling: ceiling and visibility are OK
Clouds: unknown
Weather: no significant weather observed at this time

METAR text: VTCT 161600Z 05001KT 9999 FEW035 27/25 Q1005 NOSIG
Conditions at: VTCT (CHIANG RAI INTL , TH) observed 1600 UTC 16 July 2019
Temperature: 27.0°C (81°F)
Dewpoint: 25.0°C (77°F) [RH = 89%]
Pressure (altimeter): 29.68 inches Hg (1005.0 mb)
Winds: from the NE (50 degrees) at 1 MPH (1 knots; 0.5 m/s)
Visibility: 6 or more miles (10+ km)
Ceiling: at least 12,000 feet AGL
Clouds: few clouds at 3500 feet AGL
Weather: no significant weather observed at this time

METAR text: VTCT 161500Z 03004KT 9999 FEW035 27/25 Q1005 NOSIG
Conditions at: VTCT (CHIANG RAI INTL , TH) observed 1500 UTC 16 July 2019
Temperature: 27.0°C (81°F)
Dewpoint: 25.0°C (77°F) [RH = 89%]
Pressure (altimeter): 29.68 inches Hg (1005.0 mb)
Winds: from the NNE (30 degrees) at 5 MPH (4 knots; 2.1 m/s)
Visibility: 6 or more miles (10+ km)
Ceiling: at least 12,000 feet AGL
Clouds: few clouds at 3500 feet AGL
Weather: no significant weather observed at this time

METAR text: VTCT 161400Z 36004KT 9999 FEW035 BKN070 29/24 Q1004 NOSIG
Conditions at: VTCT (CHIANG RAI INTL , TH) observed 1400 UTC 16 July 2019
Temperature: 29.0°C (84°F)
Dewpoint: 24.0°C (75°F) [RH = 74%]
Pressure (altimeter): 29.65 inches Hg (1004.0 mb)
Winds: from the N (360 degrees) at 5 MPH (4 knots; 2.1 m/s)
Visibility: 6 or more miles (10+ km)
Ceiling: 7000 feet AGL
Clouds: few clouds at 3500 feet AGL
broken clouds at 7000 feet AGL
Weather: no significant weather observed at this time

METAR text: VTCT 161300Z 18005KT 9999 FEW035 31/22 Q1003 NOSIG
Conditions at: VTCT (CHIANG RAI INTL , TH) observed 1300 UTC 16 July 2019
Temperature: 31.0°C (88°F)
Dewpoint: 22.0°C (72°F) [RH = 59%]
Pressure (altimeter): 29.62 inches Hg (1003.0 mb)
Winds: from the S (180 degrees) at 6 MPH (5 knots; 2.6 m/s)
Visibility: 6 or more miles (10+ km)
Ceiling: at least 12,000 feet AGL
Clouds: few clouds at 3500 feet AGL
Weather: no significant weather observed at this time

METAR text: VTCT 161200Z 16004KT 9999 FEW035 31/23 Q1002 NOSIG
Conditions at: VTCT (CHIANG RAI INTL , TH) observed 1200 UTC 16 July 2019
Temperature: 31.0°C (88°F)
Dewpoint: 23.0°C (73°F) [RH = 63%]
Pressure (altimeter): 29.59 inches Hg (1002.0 mb)
Winds: from the SSE (160 degrees) at 5 MPH (4 knots; 2.1 m/s)
Visibility: 6 or more miles (10+ km)
Ceiling: at least 12,000 feet AGL
Clouds: few clouds at 3500 feet AGL
Weather: no significant weather observed at this time

METAR text: VTCT 161100Z 16006KT 9999 SCT045 33/23 Q1002 NOSIG
Conditions at: VTCT (CHIANG RAI INTL , TH) observed 1100 UTC 16 July 2019
Temperature: 33.0°C (91°F)
Dewpoint: 23.0°C (73°F) [RH = 56%]
Pressure (altimeter): 29.59 inches Hg (1002.0 mb)
Winds: from the SSE (160 degrees) at 7 MPH (6 knots; 3.1 m/s)
Visibility: 6 or more miles (10+ km)
Ceiling: at least 12,000 feet AGL
Clouds: scattered clouds at 4500 feet AGL
Weather: no significant weather observed at this time

METAR text: VTCT 161000Z 19003KT 9999 FEW035 34/23 Q1002 NOSIG
Conditions at: VTCT (CHIANG RAI INTL , TH) observed 1000 UTC 16 July 2019
Temperature: 34.0°C (93°F)
Dewpoint: 23.0°C (73°F) [RH = 53%]
Pressure (altimeter): 29.59 inches Hg (1002.0 mb)
Winds: from the S (190 degrees) at 3 MPH (3 knots; 1.5 m/s)
Visibility: 6 or more miles (10+ km)
Ceiling: at least 12,000 feet AGL
Clouds: few clouds at 3500 feet AGL
Weather: no significant weather observed at this time

METAR text: VTCT 160900Z 17007KT 9999 SCT035 BKN050 33/23 Q1003 NOSIG
Conditions at: VTCT (CHIANG RAI INTL , TH) observed 0900 UTC 16 July 2019
Temperature: 33.0°C (91°F)
Dewpoint: 23.0°C (73°F) [RH = 56%]
Pressure (altimeter): 29.62 inches Hg (1003.0 mb)
Winds: from the S (170 degrees) at 8 MPH (7 knots; 3.6 m/s)
Visibility: 6 or more miles (10+ km)
Ceiling: 5000 feet AGL
Clouds: scattered clouds at 3500 feet AGL
broken clouds at 5000 feet AGL
Weather: no significant weather observed at this time

METAR text: VTCT 160800Z 13005KT 9999 SCT030 33/23 Q1003 NOSIG
Conditions at: VTCT (CHIANG RAI INTL , TH) observed 0800 UTC 16 July 2019
Temperature: 33.0°C (91°F)
Dewpoint: 23.0°C (73°F) [RH = 56%]
Pressure (altimeter): 29.62 inches Hg (1003.0 mb)
Winds: from the SE (130 degrees) at 6 MPH (5 knots; 2.6 m/s)
Visibility: 6 or more miles (10+ km)
Ceiling: at least 12,000 feet AGL
Clouds: scattered clouds at 3000 feet AGL
Weather: no significant weather observed at this time

METAR text: VTCT 160700Z 18003KT 9999 SCT025 33/24 Q1004 NOSIG
Conditions at: VTCT (CHIANG RAI INTL , TH) observed 0700 UTC 16 July 2019
Temperature: 33.0°C (91°F)
Dewpoint: 24.0°C (75°F) [RH = 59%]
Pressure (altimeter): 29.65 inches Hg (1004.0 mb)
Winds: from the S (180 degrees) at 3 MPH (3 knots; 1.5 m/s)
Visibility: 6 or more miles (10+ km)
Ceiling: at least 12,000 feet AGL
Clouds: scattered clouds at 2500 feet AGL
Weather: no significant weather observed at this time

METAR text: VTCT 160600Z 10004KT 9999 SCT025 32/24 Q1005 NOSIG
Conditions at: VTCT (CHIANG RAI INTL , TH) observed 0600 UTC 16 July 2019
Temperature: 32.0°C (90°F)
Dewpoint: 24.0°C (75°F) [RH = 63%]
Pressure (altimeter): 29.68 inches Hg (1005.0 mb)
Winds: from the E (100 degrees) at 5 MPH (4 knots; 2.1 m/s)
Visibility: 6 or more miles (10+ km)
Ceiling: at least 12,000 feet AGL
Clouds: scattered clouds at 2500 feet AGL
Weather: no significant weather observed at this time

METAR text: VTCT 160500Z 10005KT 9999 SCT025 32/23 Q1006 NOSIG
Conditions at: VTCT (CHIANG RAI INTL , TH) observed 0500 UTC 16 July 2019
Temperature: 32.0°C (90°F)
Dewpoint: 23.0°C (73°F) [RH = 59%]
Pressure (altimeter): 29.70 inches Hg (1006.0 mb)
Winds: from the E (100 degrees) at 6 MPH (5 knots; 2.6 m/s)
Visibility: 6 or more miles (10+ km)
Ceiling: at least 12,000 feet AGL
Clouds: scattered clouds at 2500 feet AGL
Weather: no significant weather observed at this time

METAR text: VTCT 160400Z 15005KT 9999 SCT025 30/23 Q1006 NOSIG
Conditions at: VTCT (CHIANG RAI INTL , TH) observed 0400 UTC 16 July 2019
Temperature: 30.0°C (86°F)
Dewpoint: 23.0°C (73°F) [RH = 66%]
Pressure (altimeter): 29.70 inches Hg (1006.0 mb)
Winds: from the SSE (150 degrees) at 6 MPH (5 knots; 2.6 m/s)
Visibility: 6 or more miles (10+ km)
Ceiling: at least 12,000 feet AGL
Clouds: scattered clouds at 2500 feet AGL
Weather: no significant weather observed at this time

METAR text: VTCT 160300Z 14005KT 9999 FEW025 30/24 Q1007 NOSIG
Conditions at: VTCT (CHIANG RAI INTL , TH) observed 0300 UTC 16 July 2019
Temperature: 30.0°C (86°F)
Dewpoint: 24.0°C (75°F) [RH = 70%]
Pressure (altimeter): 29.73 inches Hg (1007.0 mb)
Winds: from the SE (140 degrees) at 6 MPH (5 knots; 2.6 m/s)
Visibility: 6 or more miles (10+ km)
Ceiling: at least 12,000 feet AGL
Clouds: few clouds at 2500 feet AGL
Weather: no significant weather observed at this time

METAR text: VTCT 160200Z 20003KT CAVOK 29/23 Q1007 NOSIG
Conditions at: VTCT (CHIANG RAI INTL , TH) observed 0200 UTC 16 July 2019
Temperature: 29.0°C (84°F)
Dewpoint: 23.0°C (73°F) [RH = 70%]
Pressure (altimeter): 29.73 inches Hg (1007.0 mb)
Winds: from the SSW (200 degrees) at 3 MPH (3 knots; 1.5 m/s)
Visibility: 6 or more miles (10+ km)
Ceiling: ceiling and visibility are OK
Clouds: unknown
Weather: no significant weather observed at this time

METAR text: VTCT 160100Z 18005KT 9999 FEW035 28/24 Q1006 NOSIG
Conditions at: VTCT (CHIANG RAI INTL , TH) observed 0100 UTC 16 July 2019
Temperature: 28.0°C (82°F)
Dewpoint: 24.0°C (75°F) [RH = 79%]
Pressure (altimeter): 29.70 inches Hg (1006.0 mb)
Winds: from the S (180 degrees) at 6 MPH (5 knots; 2.6 m/s)
Visibility: 6 or more miles (10+ km)
Ceiling: at least 12,000 feet AGL
Clouds: few clouds at 3500 feet AGL
Weather: no significant weather observed at this time

METAR text: VTCT 160000Z VRB01KT 9999 FEW035 26/23 Q1006 NOSIG
Conditions at: VTCT (CHIANG RAI INTL , TH) observed 0000 UTC 16 July 2019
Temperature: 26.0°C (79°F)
Dewpoint: 23.0°C (73°F) [RH = 84%]
Pressure (altimeter): 29.70 inches Hg (1006.0 mb)
Winds: variable direction winds at 1 MPH (1 knots; 0.5 m/s)
Visibility: 6 or more miles (10+ km)
Ceiling: at least 12,000 feet AGL
Clouds: few clouds at 3500 feet AGL
Weather: no significant weather observed at this time

METAR text: VTCT 152300Z VRB02KT 9999 SCT045 26/23 Q1005 NOSIG
Conditions at: VTCT (CHIANG RAI INTL , TH) observed 2300 UTC 15 July 2019
Temperature: 26.0°C (79°F)
Dewpoint: 23.0°C (73°F) [RH = 84%]
Pressure (altimeter): 29.68 inches Hg (1005.0 mb)
Winds: variable direction winds at 2 MPH (2 knots; 1.0 m/s)
Visibility: 6 or more miles (10+ km)
Ceiling: at least 12,000 feet AGL
Clouds: scattered clouds at 4500 feet AGL
Weather: no significant weather observed at this time

METAR text: VTCT 152200Z 15003KT 9999 FEW045 27/23 Q1005 NOSIG
Conditions at: VTCT (CHIANG RAI INTL , TH) observed 2200 UTC 15 July 2019
Temperature: 27.0°C (81°F)
Dewpoint: 23.0°C (73°F) [RH = 79%]
Pressure (altimeter): 29.68 inches Hg (1005.0 mb)
Winds: from the SSE (150 degrees) at 3 MPH (3 knots; 1.5 m/s)
Visibility: 6 or more miles (10+ km)
Ceiling: at least 12,000 feet AGL
Clouds: few clouds at 4500 feet AGL
Weather: no significant weather observed at this time

METAR text: VTCT 152100Z 15003KT 9999 FEW045 27/23 Q1005 NOSIG
Conditions at: VTCT (CHIANG RAI INTL , TH) observed 2100 UTC 15 July 2019
Temperature: 27.0°C (81°F)
Dewpoint: 23.0°C (73°F) [RH = 79%]
Pressure (altimeter): 29.68 inches Hg (1005.0 mb)
Winds: from the SSE (150 degrees) at 3 MPH (3 knots; 1.5 m/s)
Visibility: 6 or more miles (10+ km)
Ceiling: at least 12,000 feet AGL
Clouds: few clouds at 4500 feet AGL
Weather: no significant weather observed at this time

METAR text: VTCT 152000Z VRB01KT 9999 SCT045 27/23 Q1005 NOSIG
Conditions at: VTCT (CHIANG RAI INTL , TH) observed 2000 UTC 15 July 2019
Temperature: 27.0°C (81°F)
Dewpoint: 23.0°C (73°F) [RH = 79%]
Pressure (altimeter): 29.68 inches Hg (1005.0 mb)
Winds: variable direction winds at 1 MPH (1 knots; 0.5 m/s)
Visibility: 6 or more miles (10+ km)
Ceiling: at least 12,000 feet AGL
Clouds: scattered clouds at 4500 feet AGL
Weather: no significant weather observed at this time

METAR text: VTCT 151900Z 17006KT 9999 SCT045 28/23 Q1005 NOSIG
Conditions at: VTCT (CHIANG RAI INTL , TH) observed 1900 UTC 15 July 2019
Temperature: 28.0°C (82°F)
Dewpoint: 23.0°C (73°F) [RH = 74%]
Pressure (altimeter): 29.68 inches Hg (1005.0 mb)
Winds: from the S (170 degrees) at 7 MPH (6 knots; 3.1 m/s)
Visibility: 6 or more miles (10+ km)
Ceiling: at least 12,000 feet AGL
Clouds: scattered clouds at 4500 feet AGL
Weather: no significant weather observed at this time

METAR text: VTCT 151800Z 17006KT 9999 SCT045 28/23 Q1005 NOSIG
Conditions at: VTCT (CHIANG RAI INTL , TH) observed 1800 UTC 15 July 2019
Temperature: 28.0°C (82°F)
Dewpoint: 23.0°C (73°F) [RH = 74%]
Pressure (altimeter): 29.68 inches Hg (1005.0 mb)
Winds: from the S (170 degrees) at 7 MPH (6 knots; 3.1 m/s)
Visibility: 6 or more miles (10+ km)
Ceiling: at least 12,000 feet AGL
Clouds: scattered clouds at 4500 feet AGL
Weather: no significant weather observed at this time

METAR text: VTCT 151700Z 18007KT 9999 SCT045 29/23 Q1005 NOSIG
Conditions at: VTCT (CHIANG RAI INTL , TH) observed 1700 UTC 15 July 2019
Temperature: 29.0°C (84°F)
Dewpoint: 23.0°C (73°F) [RH = 70%]
Pressure (altimeter): 29.68 inches Hg (1005.0 mb)
Winds: from the S (180 degrees) at 8 MPH (7 knots; 3.6 m/s)
Visibility: 6 or more miles (10+ km)
Ceiling: at least 12,000 feet AGL
Clouds: scattered clouds at 4500 feet AGL
Weather: no significant weather observed at this time

METAR text: VTCT 151600Z 26003KT 9999 SCT045 28/24 Q1005 NOSIG
Conditions at: VTCT (CHIANG RAI INTL , TH) observed 1600 UTC 15 July 2019
Temperature: 28.0°C (82°F)
Dewpoint: 24.0°C (75°F) [RH = 79%]
Pressure (altimeter): 29.68 inches Hg (1005.0 mb)
Winds: from the W (260 degrees) at 3 MPH (3 knots; 1.5 m/s)
Visibility: 6 or more miles (10+ km)
Ceiling: at least 12,000 feet AGL
Clouds: scattered clouds at 4500 feet AGL
Weather: no significant weather observed at this time

METAR text: VTCT 151500Z VRB02KT 9999 SCT045 29/24 Q1004 NOSIG
Conditions at: VTCT (CHIANG RAI INTL , TH) observed 1500 UTC 15 July 2019
Temperature: 29.0°C (84°F)
Dewpoint: 24.0°C (75°F) [RH = 74%]
Pressure (altimeter): 29.65 inches Hg (1004.0 mb)
Winds: variable direction winds at 2 MPH (2 knots; 1.0 m/s)
Visibility: 6 or more miles (10+ km)
Ceiling: at least 12,000 feet AGL
Clouds: scattered clouds at 4500 feet AGL
Weather: no significant weather observed at this time

METAR text: VTCT 151400Z 27004KT 9999 SCT045 29/24 Q1004 NOSIG
Conditions at: VTCT (CHIANG RAI INTL , TH) observed 1400 UTC 15 July 2019
Temperature: 29.0°C (84°F)
Dewpoint: 24.0°C (75°F) [RH = 74%]
Pressure (altimeter): 29.65 inches Hg (1004.0 mb)
Winds: from the W (270 degrees) at 5 MPH (4 knots; 2.1 m/s)
Visibility: 6 or more miles (10+ km)
Ceiling: at least 12,000 feet AGL
Clouds: scattered clouds at 4500 feet AGL
Weather: no significant weather observed at this time

Forecast for: VTCT (CHIANG RAI INTL , TH)
Text: TAF VTCT 162300Z 1700/1806 18005KT 9999 SCT025
Forecast period: 0000 UTC 17 July 2019 to 0600 UTC 18 July 2019
Forecast type: FROM: standard forecast or significant change
Winds: from the S (180 degrees) at 6 MPH (5 knots; 2.6 m/s)
Visibility: 6 or more miles 10+ km)
Ceiling: at least 12,000 feet AGL
Clouds: scattered clouds at 2500 feet AGL
Weather: no significant weather forecast for this period